Accueil
METAR-TAF:

METAR-TAF

Aéroports :

Aéroport international de Gaborone

Gaborone, Botswana

latitude: 24-13S, longitude: 025-55E, altitude: 1005 m

Observation

Le bulletin a été fait il y a 1 heure et 8 minutes, à 14:00 UTC
Vent 10 kt de nord-est, variant entre nord/nord-est et est
Température 37°C
Humidité 8%
Pression 1014 hPa
Visibilité 10 km ou plus
pas de nuages en-dessous de 1500 mètres et pas de cumulonimbus.

METAR: FBSK 061400Z 05010KT 020V080 CAVOK 37/M02 Q1014 NOSIG

Heure: 17:08 (15:08 UTC)

Prévision

Le bulletin a été fait il y a 5 heures et 8 minutes, à 10:00 UTC
Prévision valable du 06 à 12 UTC au 07 à 18 UTC
Vent 9 kt de nord/nord-est
Visibilité 10 km ou plus
pas de nuages en-dessous de 1500 mètres et pas de cumulonimbus.

TAF: FBSK 061000Z 0612/0718 03009KT CAVOK

Observations et prévisions météorologiques de plus de 4000 aéroports (messages METAR et TAF).

Les stations disponibles sont représentées par des disques jaunes et rouges sur la carte.

Passer la souris dessus pour voir le nom de la station.

Cliquer dessus pour voir les observations et prévisions météorologiques.

Pour changer de carte: cliquez sur les boutons verts avec une croix noire pour zoomer, sur le bouton vert avec un tiret pour effectuer un zoom arrière, ou sur les flèches vertes pour les cartes adjacentes.


METAR-TAF: